Main page
Satellite images 15-day forecastsClimateMarine weather Cyclones Lightning AirportsFAQ Newsletter About
Weather : Europe Africa North America South America Asia Australia-Oceania Others
Languages Contact

Çorlu, Turkey

latitude: 41-08N, longitude: 027-55E, elevation: 173 m


METAR: LTBU 221550Z 01008KT 9999 SCT030 BKN080 06/01 Q1025
TAF: LTBU 221040Z 2212/2312 34007KT 9999 SCT017 BKN033 TEMPO 2212/2216 35015G25KT -RA BKN020

Time: 18:15 (16:15 UTC)

Current weather observation

The report was made 25 minutes ago, at 15:50 UTC
Wind 8 kt from the North
Temperature 6°C
Humidity 70%
Pressure 1025 hPa
Visibility 10 km or more
Scattered clouds at a height of 3000 ft
Broken clouds at a height of 8000 ft

Change units

Forecast

The report was made 5 hours and 35 minutes ago, at 10:40 UTC
Forecast valid from 22 at 12 UTC to 23 at 12 UTC
Wind 7 kt from the North/Northwest
Visibility 10 km or more
Scattered clouds at a height of 1700 ft
Broken clouds at a height of 3300 ft
Temporary
from 22 at 12 UTC to 22 at 16 UTC
Wind 15 kt from the North with gusts up to 25 kt
Broken clouds at a height of 2000 ft
light rain
The information on this site is subject to a disclaimer
Weather : Europe Africa North America South America Asia Australia-Oceania Others
Satellite images 15-day forecastsClimateMarine weather Cyclones Lightning AirportsFAQ Languages Contact Newsletter About